Time;durP1;ratioP1;P1;durP2;ratioP2;P2;SDS_P1;SDS_P2;PMS_P1;PMS_P2;Temp;Humidity;BMP_temperature;BMP_pressure;BME280_temperature;BME280_humidity;BME280_pressure;Samples;Min_cycle;Max_cycle;Signal;HPM_P1;HPM_P2
2022/07/06 00:00:44;;;;;;;16.42;8.68;;;;;;;;;;5012421;28;20036;-63
2022/07/06 00:03:10;;;;;;;16.58;8.20;;;;;;;;;;5012534;28;20088;-62
2022/07/06 00:05:37;;;;;;;16.05;8.50;;;;;;;;;;5012235;28;20721;-61
2022/07/06 00:08:03;;;;;;;17.15;8.85;;;;;;;;;;5011493;28;20030;-64
2022/07/06 00:10:29;;;;;;;17.88;8.68;;;;;;;;;;5027547;23;20045;-61
2022/07/06 00:12:55;;;;;;;19.70;8.88;;;;;;;;;;5012882;28;20513;-61
2022/07/06 00:15:21;;;;;;;17.50;8.88;;;;;;;;;;5013147;28;20022;-62
2022/07/06 00:17:47;;;;;;;16.35;8.80;;;;;;;;;;4994395;28;20121;-61
2022/07/06 00:20:13;;;;;;;17.38;9.63;;;;;;;;;;4995174;28;20049;-61
2022/07/06 00:22:39;;;;;;;16.73;9.05;;;;;;;;;;5012200;28;20030;-62
2022/07/06 00:25:05;;;;;;;17.70;9.38;;;;;;;;;;5012509;28;20030;-64
2022/07/06 00:27:31;;;;;;;14.95;8.30;;;;;;;;;;4994774;28;20117;-61
2022/07/06 00:29:57;;;;;;;18.73;8.95;;;;;;;;;;5013229;28;20089;-63
2022/07/06 00:32:23;;;;;;;16.25;8.93;;;;;;;;;;4995579;28;20026;-64
2022/07/06 00:34:49;;;;;;;15.73;8.90;;;;;;;;;;5013264;28;20109;-60
2022/07/06 00:37:15;;;;;;;15.85;8.50;;;;;;;;;;5012616;28;20022;-61
2022/07/06 00:39:41;;;;;;;15.88;8.55;;;;;;;;;;5012991;28;20030;-64
2022/07/06 00:42:07;;;;;;;17.27;8.80;;;;;;;;;;5012752;28;20026;-60
2022/07/06 00:44:33;;;;;;;16.15;8.68;;;;;;;;;;5012985;28;20613;-61
2022/07/06 00:47:00;;;;;;;18.52;8.88;;;;;;;;;;5012793;28;20037;-62
2022/07/06 00:52:11;;;;;;;17.38;9.05;;;;;;;;;;5012822;28;20041;-61
2022/07/06 00:54:37;;;;;;;17.92;9.38;;;;;;;;;;5013119;28;20029;-61
2022/07/06 00:57:03;;;;;;;18.50;9.27;;;;;;;;;;5012417;28;20033;-60
2022/07/06 00:59:29;;;;;;;16.75;9.13;;;;;;;;;;5011730;28;20033;-60
2022/07/06 01:01:55;;;;;;;17.15;9.30;;;;;;;;;;5014209;28;20064;-61
2022/07/06 01:04:21;;;;;;;16.48;8.68;;;;;;;;;;5016203;28;20121;-60
2022/07/06 01:06:47;;;;;;;17.27;8.82;;;;;;;;;;5015856;28;20072;-61
2022/07/06 01:09:14;;;;;;;17.17;9.10;;;;;;;;;;4997302;28;20029;-61
2022/07/06 01:11:40;;;;;;;17.95;8.63;;;;;;;;;;5016014;28;20104;-61
2022/07/06 01:14:06;;;;;;;18.00;9.30;;;;;;;;;;4998048;28;20030;-61
2022/07/06 01:16:32;;;;;;;16.17;9.20;;;;;;;;;;5015461;28;20120;-61
2022/07/06 01:18:58;;;;;;;20.05;10.80;;;;;;;;;;5014708;28;20026;-60
2022/07/06 01:21:24;;;;;;;16.80;9.07;;;;;;;;;;5015274;28;20068;-60
2022/07/06 01:23:50;;;;;;;16.38;9.70;;;;;;;;;;4997748;28;20026;-61
2022/07/06 01:26:21;;;;;;;15.98;9.65;;;;;;;;;;5015454;28;20022;-58
2022/07/06 01:28:49;;;;;;;16.55;9.30;;;;;;;;;;4996797;28;20557;-59
2022/07/06 01:31:16;;;;;;;17.60;9.67;;;;;;;;;;5015367;28;20064;-60
2022/07/06 01:33:42;;;;;;;20.20;9.38;;;;;;;;;;5015140;28;20057;-60
2022/07/06 01:36:08;;;;;;;16.30;9.35;;;;;;;;;;5014828;28;20022;-60
2022/07/06 01:38:43;;;;;;;18.65;9.82;;;;;;;;;;5014130;28;20029;-62
2022/07/06 01:41:09;;;;;;;19.42;10.20;;;;;;;;;;4997450;28;20490;-61
2022/07/06 01:43:36;;;;;;;16.95;10.00;;;;;;;;;;5015217;28;20037;-61
2022/07/06 01:46:02;;;;;;;17.92;9.15;;;;;;;;;;5014960;28;20075;-61
2022/07/06 01:48:27;;;;;;;17.65;9.25;;;;;;;;;;5013979;28;20116;-60
2022/07/06 01:50:53;;;;;;;16.98;9.10;;;;;;;;;;5014822;28;20486;-61
2022/07/06 01:53:19;;;;;;;17.75;9.38;;;;;;;;;;5015105;28;20018;-62
2022/07/06 01:55:45;;;;;;;17.63;9.50;;;;;;;;;;5015328;28;20034;-61
2022/07/06 01:58:11;;;;;;;18.02;10.48;;;;;;;;;;5020704;28;20038;-61
2022/07/06 02:00:37;;;;;;;16.55;9.15;;;;;;;;;;5017091;28;20099;-62
2022/07/06 02:03:03;;;;;;;15.82;9.30;;;;;;;;;;5034949;28;20108;-62
2022/07/06 02:05:29;;;;;;;16.38;8.88;;;;;;;;;;5016834;28;20083;-62
2022/07/06 02:07:55;;;;;;;15.32;8.93;;;;;;;;;;5016397;28;20029;-60
2022/07/06 02:10:22;;;;;;;16.98;9.50;;;;;;;;;;5034801;28;20123;-61
2022/07/06 02:12:49;;;;;;;17.50;9.15;;;;;;;;;;5034080;28;20026;-61
2022/07/06 02:15:15;;;;;;;16.88;9.07;;;;;;;;;;5035051;28;20477;-61
2022/07/06 02:17:41;;;;;;;16.00;9.50;;;;;;;;;;5034196;28;20017;-61
2022/07/06 02:20:07;;;;;;;17.38;9.25;;;;;;;;;;5034450;28;20501;-61
2022/07/06 02:22:33;;;;;;;17.50;9.30;;;;;;;;;;5016530;28;20025;-60
2022/07/06 02:24:59;;;;;;;16.65;9.48;;;;;;;;;;5034455;28;20072;-60
2022/07/06 02:27:25;;;;;;;15.40;9.10;;;;;;;;;;5033549;28;20017;-61
2022/07/06 02:29:51;;;;;;;17.35;9.52;;;;;;;;;;5016363;28;20032;-61
2022/07/06 02:32:17;;;;;;;20.05;9.88;;;;;;;;;;5034266;28;20432;-62
2022/07/06 02:34:43;;;;;;;17.02;9.90;;;;;;;;;;5016355;28;20032;-61
2022/07/06 02:37:09;;;;;;;18.25;9.88;;;;;;;;;;5034135;28;20111;-60
2022/07/06 02:39:35;;;;;;;18.05;10.15;;;;;;;;;;5033951;28;20448;-61
2022/07/06 02:42:01;;;;;;;17.63;10.15;;;;;;;;;;5016234;28;20496;-62
2022/07/06 02:44:27;;;;;;;19.75;10.32;;;;;;;;;;5016085;28;20458;-59
2022/07/06 02:46:53;;;;;;;18.33;10.23;;;;;;;;;;5033828;28;20117;-62
2022/07/06 02:49:19;;;;;;;18.25;10.02;;;;;;;;;;5032870;28;20032;-60
2022/07/06 02:51:45;;;;;;;16.50;9.73;;;;;;;;;;5033534;28;20025;-59
2022/07/06 02:54:11;;;;;;;17.60;10.15;;;;;;;;;;5033799;28;20091;-61
2022/07/06 02:56:37;;;;;;;17.35;9.82;;;;;;;;;;5033826;28;20048;-61
2022/07/06 02:59:03;;;;;;;19.90;10.00;;;;;;;;;;5032748;28;20461;-61
2022/07/06 03:01:29;;;;;;;20.35;10.32;;;;;;;;;;5015753;28;20052;-61
2022/07/06 03:03:55;;;;;;;21.85;10.50;;;;;;;;;;5033842;28;20029;-61
2022/07/06 03:06:21;;;;;;;19.25;10.95;;;;;;;;;;5033465;28;20025;-61
2022/07/06 03:08:47;;;;;;;16.65;10.38;;;;;;;;;;5032314;28;20025;-61
2022/07/06 03:11:13;;;;;;;16.33;10.13;;;;;;;;;;5033474;28;20051;-61
2022/07/06 03:13:39;;;;;;;17.80;10.13;;;;;;;;;;5015699;28;20022;-62
2022/07/06 03:16:05;;;;;;;18.58;10.52;;;;;;;;;;5015414;28;20684;-61
2022/07/06 03:18:31;;;;;;;18.73;10.68;;;;;;;;;;5032110;28;20025;-58
2022/07/06 03:20:57;;;;;;;20.33;10.48;;;;;;;;;;5015237;28;20033;-61
2022/07/06 03:23:23;;;;;;;16.92;10.45;;;;;;;;;;5033213;28;20025;-60
2022/07/06 03:25:49;;;;;;;16.83;9.70;;;;;;;;;;5016390;28;20398;-61
2022/07/06 03:28:15;;;;;;;16.73;10.35;;;;;;;;;;5033205;28;20052;-60
2022/07/06 03:30:41;;;;;;;17.67;10.15;;;;;;;;;;5033699;28;20113;-61
2022/07/06 03:33:07;;;;;;;19.33;9.43;;;;;;;;;;5033426;28;20034;-60
2022/07/06 03:35:33;;;;;;;19.25;9.65;;;;;;;;;;5034265;28;20108;-61
2022/07/06 03:37:59;;;;;;;19.42;9.88;;;;;;;;;;5032125;28;20022;-60
2022/07/06 03:40:25;;;;;;;18.55;10.15;;;;;;;;;;5032708;28;20409;-61
2022/07/06 03:42:51;;;;;;;17.40;9.77;;;;;;;;;;5032963;28;20456;-61
2022/07/06 03:45:17;;;;;;;17.20;9.35;;;;;;;;;;5032721;28;20049;-61
2022/07/06 03:47:43;;;;;;;16.65;10.25;;;;;;;;;;5031562;28;20453;-59
2022/07/06 03:50:09;;;;;;;17.25;10.20;;;;;;;;;;5032440;28;20090;-59
2022/07/06 03:52:39;;;;;;;16.80;10.00;;;;;;;;;;5032482;28;20028;-59
2022/07/06 03:55:07;;;;;;;15.95;9.52;;;;;;;;;;5032492;28;20017;-61
2022/07/06 03:57:33;;;;;;;16.42;9.32;;;;;;;;;;5031546;28;20025;-61
2022/07/06 03:59:59;;;;;;;19.38;9.55;;;;;;;;;;5032489;28;20029;-61
2022/07/06 04:02:25;;;;;;;18.75;9.93;;;;;;;;;;5014742;28;20030;-61
2022/07/06 04:04:51;;;;;;;17.15;9.38;;;;;;;;;;5032254;28;20021;-59
2022/07/06 04:07:17;;;;;;;18.38;9.98;;;;;;;;;;5031644;28;20025;-61
2022/07/06 04:09:43;;;;;;;16.73;9.75;;;;;;;;;;5032240;28;20521;-62
2022/07/06 04:12:09;;;;;;;22.02;10.75;;;;;;;;;;5014813;28;20030;-61
2022/07/06 04:14:35;;;;;;;19.02;9.75;;;;;;;;;;5014847;28;20116;-62
2022/07/06 04:17:51;;;;;;;16.35;9.63;;;;;;;;;;5014253;28;20025;-62
2022/07/06 04:19:47;;;;;;;17.75;10.25;;;;;;;;;;5033156;28;20087;-61
2022/07/06 04:22:13;;;;;;;16.85;9.60;;;;;;;;;;5032316;28;20037;-59
2022/07/06 04:24:39;;;;;;;18.13;9.55;;;;;;;;;;5032176;28;20041;-60
2022/07/06 04:27:05;;;;;;;17.58;9.85;;;;;;;;;;5014139;28;20112;-60
2022/07/06 04:29:31;;;;;;;17.83;9.77;;;;;;;;;;5031333;28;20148;-60
2022/07/06 04:31:57;;;;;;;19.63;10.13;;;;;;;;;;5031844;28;20076;-61
2022/07/06 04:34:23;;;;;;;16.40;9.93;;;;;;;;;;5014400;28;20018;-60
2022/07/06 04:36:49;;;;;;;16.50;10.25;;;;;;;;;;5016000;28;20034;-60
2022/07/06 04:39:15;;;;;;;15.98;9.50;;;;;;;;;;5017088;28;20036;-63
2022/07/06 04:41:41;;;;;;;17.10;9.98;;;;;;;;;;5036126;28;20025;-61
2022/07/06 04:44:07;;;;;;;18.35;10.20;;;;;;;;;;5035448;28;20029;-61
2022/07/06 04:46:33;;;;;;;19.90;11.18;;;;;;;;;;5018219;28;20103;-61
2022/07/06 04:48:59;;;;;;;18.52;10.38;;;;;;;;;;5017113;28;20022;-61
2022/07/06 04:51:25;;;;;;;20.38;10.75;;;;;;;;;;5035795;28;20116;-61
2022/07/06 04:53:51;;;;;;;18.10;9.80;;;;;;;;;;5035781;28;20037;-61
2022/07/06 04:56:17;;;;;;;18.85;10.18;;;;;;;;;;5035729;28;20014;-61
2022/07/06 04:58:43;;;;;;;17.77;9.77;;;;;;;;;;5035110;28;20100;-60
2022/07/06 05:01:09;;;;;;;20.25;10.38;;;;;;;;;;5035527;28;20057;-60
2022/07/06 05:03:39;;;;;;;19.67;10.27;;;;;;;;;;5035602;28;20030;-64
2022/07/06 05:06:06;;;;;;;17.73;10.07;;;;;;;;;;5037064;28;20029;-65
2022/07/06 05:08:32;;;;;;;17.30;9.88;;;;;;;;;;5035264;28;20022;-61
2022/07/06 05:10:58;;;;;;;17.15;10.02;;;;;;;;;;5017481;28;20036;-60
2022/07/06 05:13:24;;;;;;;17.80;9.73;;;;;;;;;;5017491;28;20642;-60
2022/07/06 05:15:50;;;;;;;17.73;10.00;;;;;;;;;;5034979;28;20136;-60
2022/07/06 05:18:16;;;;;;;15.93;9.93;;;;;;;;;;5016122;28;20115;-61
2022/07/06 05:20:42;;;;;;;18.65;9.85;;;;;;;;;;5034831;28;20025;-61
2022/07/06 05:23:08;;;;;;;18.00;10.32;;;;;;;;;;5034763;28;20386;-61
2022/07/06 05:25:35;;;;;;;15.70;9.57;;;;;;;;;;5034892;28;20039;-61
2022/07/06 05:28:01;;;;;;;18.60;10.88;;;;;;;;;;5034206;28;20053;-60
2022/07/06 05:30:27;;;;;;;18.73;10.20;;;;;;;;;;5035012;28;20029;-58
2022/07/06 05:32:53;;;;;;;17.60;10.07;;;;;;;;;;5035087;28;20064;-60
2022/07/06 05:35:19;;;;;;;16.35;9.60;;;;;;;;;;5035006;28;20385;-60
2022/07/06 05:37:45;;;;;;;17.52;9.98;;;;;;;;;;5033747;28;20017;-61
2022/07/06 05:40:11;;;;;;;17.75;10.07;;;;;;;;;;5017112;28;20036;-61
2022/07/06 05:42:37;;;;;;;17.50;10.38;;;;;;;;;;5017160;28;20033;-62
2022/07/06 05:45:04;;;;;;;18.95;9.75;;;;;;;;;;5016854;28;20049;-62
2022/07/06 05:50:17;;;;;;;18.33;10.48;;;;;;;;;;5034389;28;20079;-60
2022/07/06 05:52:44;;;;;;;21.85;10.38;;;;;;;;;;5034366;28;20038;-61
2022/07/06 05:55:11;;;;;;;17.02;9.43;;;;;;;;;;5034464;28;20112;-61
2022/07/06 05:57:37;;;;;;;16.75;9.52;;;;;;;;;;5033693;28;20036;-58
2022/07/06 06:00:04;;;;;;;18.67;9.27;;;;;;;;;;5016426;28;20032;-59
2022/07/06 06:02:40;;;;;;;16.15;9.82;;;;;;;;;;5016643;28;20071;-60
2022/07/06 06:05:07;;;;;;;16.80;9.10;;;;;;;;;;5034516;28;20473;-61
2022/07/06 06:07:34;;;;;;;18.40;9.88;;;;;;;;;;5034700;28;20056;-60
2022/07/06 06:10:00;;;;;;;17.02;9.65;;;;;;;;;;5048982;22;20134;-62
2022/07/06 06:12:26;;;;;;;17.98;10.30;;;;;;;;;;5032136;28;20061;-62
2022/07/06 06:14:52;;;;;;;17.08;8.40;;;;;;;;;;5032255;28;20018;-62
2022/07/06 06:17:18;;;;;;;15.85;8.90;;;;;;;;;;5031912;28;20108;-61
2022/07/06 06:19:44;;;;;;;16.63;9.13;;;;;;;;;;5032289;28;20063;-62
2022/07/06 06:22:10;;;;;;;16.17;9.95;;;;;;;;;;5014862;28;20078;-62
2022/07/06 06:24:36;;;;;;;17.48;9.25;;;;;;;;;;5032335;28;20481;-61
2022/07/06 06:27:02;;;;;;;16.00;9.10;;;;;;;;;;5032235;28;20080;-61
2022/07/06 06:29:28;;;;;;;17.70;8.70;;;;;;;;;;5013909;28;20030;-62
2022/07/06 06:31:54;;;;;;;15.80;9.20;;;;;;;;;;5032302;28;20063;-63
2022/07/06 06:34:20;;;;;;;17.83;9.20;;;;;;;;;;5032328;28;20029;-61
2022/07/06 06:36:46;;;;;;;16.25;9.07;;;;;;;;;;5032264;28;20026;-63
2022/07/06 06:39:12;;;;;;;16.45;9.10;;;;;;;;;;5031369;28;20018;-62
2022/07/06 06:41:38;;;;;;;17.38;9.43;;;;;;;;;;5032083;28;20104;-63
2022/07/06 06:44:04;;;;;;;17.60;9.95;;;;;;;;;;5014707;28;20051;-63
2022/07/06 06:46:30;;;;;;;16.45;8.90;;;;;;;;;;5031850;28;20381;-63
2022/07/06 06:48:56;;;;;;;16.10;8.80;;;;;;;;;;5013265;28;20489;-62
2022/07/06 06:51:22;;;;;;;15.85;9.07;;;;;;;;;;5031854;28;20026;-62
2022/07/06 06:53:48;;;;;;;16.75;9.23;;;;;;;;;;5031779;28;20032;-61
2022/07/06 06:56:14;;;;;;;17.70;9.20;;;;;;;;;;5031765;28;20027;-61
2022/07/06 06:58:40;;;;;;;16.75;8.75;;;;;;;;;;5012800;28;20025;-62
2022/07/06 07:01:06;;;;;;;22.38;9.65;;;;;;;;;;5031286;28;20485;-62
2022/07/06 07:03:32;;;;;;;17.08;9.02;;;;;;;;;;5031307;28;20045;-62
2022/07/06 07:05:58;;;;;;;20.30;10.63;;;;;;;;;;5031933;28;20017;-62
2022/07/06 07:08:24;;;;;;;23.40;9.57;;;;;;;;;;5025199;28;20112;-61
2022/07/06 07:10:50;;;;;;;20.98;10.30;;;;;;;;;;5029308;28;20057;-61
2022/07/06 07:13:16;;;;;;;22.67;9.15;;;;;;;;;;5031239;28;20061;-57
2022/07/06 07:15:42;;;;;;;18.05;8.98;;;;;;;;;;5022671;28;20101;-61
2022/07/06 07:18:08;;;;;;;26.60;9.20;;;;;;;;;;5010793;28;20105;-62
2022/07/06 07:20:34;;;;;;;18.27;9.20;;;;;;;;;;5011111;28;20133;-62
2022/07/06 07:23:01;;;;;;;19.08;9.27;;;;;;;;;;5011271;28;20504;-62
2022/07/06 07:25:27;;;;;;;16.08;8.60;;;;;;;;;;5029301;28;20109;-62
2022/07/06 07:27:54;;;;;;;18.45;9.10;;;;;;;;;;5030528;28;20029;-62
2022/07/06 07:30:21;;;;;;;16.55;8.55;;;;;;;;;;5031309;28;20025;-64
2022/07/06 07:32:47;;;;;;;22.15;9.15;;;;;;;;;;5030718;28;20060;-63
2022/07/06 07:35:13;;;;;;;16.25;8.00;;;;;;;;;;5030808;28;20541;-63
2022/07/06 07:37:39;;;;;;;26.25;9.10;;;;;;;;;;5030198;28;20103;-62
2022/07/06 07:40:06;;;;;;;18.50;9.23;;;;;;;;;;5030720;28;20033;-64
2022/07/06 07:42:32;;;;;;;15.80;8.57;;;;;;;;;;5014589;28;20031;-64
2022/07/06 07:44:58;;;;;;;20.75;8.88;;;;;;;;;;5030735;28;20028;-62
2022/07/06 07:47:24;;;;;;;18.98;9.02;;;;;;;;;;5029947;28;20026;-61
2022/07/06 07:49:50;;;;;;;18.23;8.40;;;;;;;;;;5030550;28;20082;-62
2022/07/06 07:52:16;;;;;;;16.55;8.95;;;;;;;;;;5030651;28;20112;-63
2022/07/06 07:54:42;;;;;;;19.35;9.05;;;;;;;;;;5013070;28;20032;-63
2022/07/06 07:57:10;;;;;;;16.75;8.70;;;;;;;;;;5030547;28;20382;-60
2022/07/06 07:59:36;;;;;;;19.95;9.30;;;;;;;;;;5030352;28;20424;-62
2022/07/06 08:02:02;;;;;;;16.52;8.82;;;;;;;;;;5029533;28;20036;-61
2022/07/06 08:04:28;;;;;;;16.10;8.52;;;;;;;;;;5030709;28;20022;-61
2022/07/06 08:06:54;;;;;;;17.67;8.88;;;;;;;;;;5030395;28;20451;-62
2022/07/06 08:09:20;;;;;;;18.50;8.65;;;;;;;;;;5029761;28;20432;-62
2022/07/06 08:11:46;;;;;;;18.67;8.68;;;;;;;;;;5032069;28;20025;-62
2022/07/06 08:14:14;;;;;;;14.27;7.72;;;;;;;;;;5033865;28;20109;-63
2022/07/06 08:16:40;;;;;;;15.48;7.53;;;;;;;;;;5034448;28;20428;-62
2022/07/06 08:19:06;;;;;;;13.65;7.80;;;;;;;;;;5033742;28;20029;-63
2022/07/06 08:21:32;;;;;;;16.33;8.23;;;;;;;;;;5034381;28;20021;-63
2022/07/06 08:24:00;;;;;;;17.52;7.78;;;;;;;;;;5018469;28;20114;-60
2022/07/06 08:26:26;;;;;;;19.08;8.52;;;;;;;;;;5014500;28;20022;-61
2022/07/06 08:28:52;;;;;;;20.73;8.07;;;;;;;;;;4996263;28;20437;-60
2022/07/06 08:31:18;;;;;;;19.45;8.70;;;;;;;;;;5014447;28;20458;-60
2022/07/06 08:33:44;;;;;;;23.27;9.02;;;;;;;;;;5014976;28;20018;-58
2022/07/06 08:36:10;;;;;;;16.70;8.57;;;;;;;;;;5014347;28;20412;-60
2022/07/06 08:38:36;;;;;;;17.67;8.23;;;;;;;;;;5013665;28;20033;-60
2022/07/06 08:41:03;;;;;;;22.10;7.93;;;;;;;;;;5014588;28;20359;-60
2022/07/06 08:43:29;;;;;;;16.05;8.20;;;;;;;;;;5014071;28;20021;-58
2022/07/06 08:45:55;;;;;;;16.65;8.55;;;;;;;;;;5014192;28;20026;-60
2022/07/06 08:48:24;;;;;;;14.52;8.50;;;;;;;;;;5013268;28;20026;-58
2022/07/06 08:50:50;;;;;;;15.50;8.30;;;;;;;;;;5014146;28;20161;-59
2022/07/06 08:53:18;;;;;;;17.23;8.90;;;;;;;;;;5016502;28;20076;-60
2022/07/06 08:55:44;;;;;;;15.32;8.10;;;;;;;;;;4996527;28;20022;-59
2022/07/06 08:58:10;;;;;;;14.90;8.63;;;;;;;;;;5013620;28;20061;-61
2022/07/06 09:00:36;;;;;;;14.88;8.07;;;;;;;;;;5014537;28;20026;-59
2022/07/06 09:03:02;;;;;;;16.35;8.75;;;;;;;;;;5014612;28;20109;-58
2022/07/06 09:05:29;;;;;;;15.02;8.30;;;;;;;;;;5014531;28;20049;-60
2022/07/06 09:07:56;;;;;;;21.20;9.20;;;;;;;;;;5013418;28;20022;-60
2022/07/06 09:10:22;;;;;;;14.50;8.50;;;;;;;;;;5032483;28;20071;-63
2022/07/06 09:12:49;;;;;;;15.88;8.48;;;;;;;;;;5033781;28;20021;-64
2022/07/06 09:15:15;;;;;;;16.55;9.30;;;;;;;;;;5033915;28;20046;-63
2022/07/06 09:17:42;;;;;;;14.27;9.10;;;;;;;;;;5033071;28;20033;-62
2022/07/06 09:20:09;;;;;;;13.80;8.70;;;;;;;;;;5012803;28;20034;-62
2022/07/06 09:22:35;;;;;;;15.20;9.02;;;;;;;;;;5016326;28;20034;-63
2022/07/06 09:25:07;;;;;;;14.32;8.82;;;;;;;;;;5014806;28;20022;-70
2022/07/06 09:27:38;;;;;;;15.18;8.75;;;;;;;;;;5013358;28;20034;-63
2022/07/06 09:30:04;;;;;;;14.35;8.95;;;;;;;;;;4996970;28;20026;-62
2022/07/06 09:32:31;;;;;;;15.10;8.60;;;;;;;;;;5020228;28;20026;-64
2022/07/06 09:34:57;;;;;;;15.68;9.15;;;;;;;;;;5015142;28;20056;-64
2022/07/06 09:37:23;;;;;;;15.57;8.80;;;;;;;;;;5014194;28;20029;-63
2022/07/06 09:39:49;;;;;;;16.65;9.50;;;;;;;;;;5015658;28;20037;-64
2022/07/06 09:42:16;;;;;;;17.77;9.60;;;;;;;;;;5017778;28;20032;-63
2022/07/06 09:44:42;;;;;;;15.38;8.85;;;;;;;;;;5017844;28;20068;-64
2022/07/06 09:47:09;;;;;;;15.30;9.55;;;;;;;;;;5001147;28;20068;-59
2022/07/06 09:49:36;;;;;;;16.25;9.30;;;;;;;;;;5018556;28;20097;-65
2022/07/06 09:52:03;;;;;;;16.48;10.15;;;;;;;;;;5018071;28;20056;-64
2022/07/06 09:54:29;;;;;;;16.60;9.77;;;;;;;;;;5018443;28;20026;-63
2022/07/06 09:56:56;;;;;;;15.38;9.02;;;;;;;;;;5019884;28;20074;-65
2022/07/06 09:59:24;;;;;;;16.92;9.75;;;;;;;;;;5016631;28;20056;-62
2022/07/06 10:01:57;;;;;;;16.20;9.60;;;;;;;;;;5018664;28;20029;-62
2022/07/06 10:04:24;;;;;;;17.45;10.13;;;;;;;;;;5016364;28;20081;-63
2022/07/06 10:06:50;;;;;;;18.40;9.43;;;;;;;;;;5014010;28;20478;-63
2022/07/06 10:09:16;;;;;;;17.88;9.43;;;;;;;;;;5021580;28;20055;-63
2022/07/06 10:11:48;;;;;;;14.98;8.85;;;;;;;;;;5032722;28;20374;-63
2022/07/06 10:14:15;;;;;;;15.15;8.82;;;;;;;;;;5032887;28;20539;-62
2022/07/06 10:16:42;;;;;;;15.25;9.10;;;;;;;;;;5032673;28;20041;-62
2022/07/06 10:19:08;;;;;;;14.40;8.75;;;;;;;;;;5032344;28;20017;-62
2022/07/06 10:21:38;;;;;;;16.08;9.00;;;;;;;;;;5032664;28;20494;-64
2022/07/06 10:24:06;;;;;;;15.20;9.52;;;;;;;;;;5031397;28;20033;-63
2022/07/06 10:26:33;;;;;;;16.20;8.90;;;;;;;;;;5032364;28;20017;-59
2022/07/06 10:29:00;;;;;;;17.45;9.23;;;;;;;;;;5031772;28;20080;-62
2022/07/06 10:31:28;;;;;;;14.90;8.68;;;;;;;;;;5030720;28;20044;-62
2022/07/06 10:33:55;;;;;;;17.70;9.25;;;;;;;;;;5031712;28;20033;-62
2022/07/06 10:36:21;;;;;;;15.45;9.30;;;;;;;;;;5029278;28;20026;-61
2022/07/06 10:38:49;;;;;;;14.55;9.50;;;;;;;;;;5025643;28;20542;-64
2022/07/06 10:41:15;;;;;;;15.75;9.52;;;;;;;;;;5032706;28;20381;-64
2022/07/06 10:43:46;;;;;;;14.55;9.40;;;;;;;;;;5032262;28;20099;-64
2022/07/06 10:46:13;;;;;;;17.35;9.85;;;;;;;;;;5032146;28;20048;-63
2022/07/06 10:48:43;;;;;;;15.65;9.63;;;;;;;;;;5031815;28;20036;-64
2022/07/06 10:51:11;;;;;;;14.70;9.50;;;;;;;;;;5031870;28;20045;-64
2022/07/06 10:53:39;;;;;;;15.98;9.43;;;;;;;;;;5032317;28;20018;-66
2022/07/06 10:56:06;;;;;;;17.20;9.60;;;;;;;;;;5031884;28;20018;-62
2022/07/06 10:58:51;;;;;;;15.65;9.70;;;;;;;;;;5032326;28;20087;-63
2022/07/06 11:01:18;;;;;;;17.65;9.10;;;;;;;;;;5032045;28;20056;-63
2022/07/06 11:03:56;;;;;;;16.58;9.20;;;;;;;;;;5031967;28;20100;-64
2022/07/06 11:06:26;;;;;;;14.73;9.00;;;;;;;;;;5032259;28;20025;-63
2022/07/06 11:08:52;;;;;;;16.08;9.73;;;;;;;;;;5031211;28;20069;-57
2022/07/06 11:11:24;;;;;;;16.95;9.52;;;;;;;;;;5031879;28;20116;-60
2022/07/06 11:13:50;;;;;;;14.98;9.90;;;;;;;;;;5031864;28;20573;-61
2022/07/06 11:16:16;;;;;;;17.27;9.48;;;;;;;;;;5031148;28;20026;-55
2022/07/06 11:18:46;;;;;;;15.80;9.52;;;;;;;;;;5031177;28;20032;-58
2022/07/06 11:21:32;;;;;;;16.25;9.90;;;;;;;;;;5031356;28;20105;-55
2022/07/06 11:23:58;;;;;;;15.25;9.52;;;;;;;;;;5031159;28;20592;-54
2022/07/06 11:26:25;;;;;;;15.52;9.48;;;;;;;;;;5031059;28;20069;-58
2022/07/06 11:28:51;;;;;;;19.02;10.05;;;;;;;;;;5031024;28;20366;-64
2022/07/06 11:31:18;;;;;;;29.42;10.90;;;;;;;;;;5031121;28;20125;-64
2022/07/06 11:33:47;;;;;;;16.90;10.02;;;;;;;;;;5031432;28;20389;-63
2022/07/06 11:36:14;;;;;;;23.42;11.15;;;;;;;;;;5031349;28;20021;-63
2022/07/06 11:38:40;;;;;;;21.67;10.45;;;;;;;;;;5030805;28;20026;-63
2022/07/06 11:41:07;;;;;;;16.13;9.75;;;;;;;;;;5030531;28;20048;-59
2022/07/06 11:43:33;;;;;;;17.70;10.23;;;;;;;;;;5031287;28;20025;-64
2022/07/06 11:45:59;;;;;;;16.30;9.82;;;;;;;;;;5031009;28;20390;-64
2022/07/06 11:48:36;;;;;;;14.80;9.05;;;;;;;;;;5012706;28;20125;-64
2022/07/06 11:51:03;;;;;;;16.15;9.80;;;;;;;;;;5029751;28;20034;-64
2022/07/06 11:53:29;;;;;;;15.07;9.52;;;;;;;;;;5030705;28;20029;-65
2022/07/06 11:55:55;;;;;;;17.08;9.80;;;;;;;;;;5031090;28;20083;-70
2022/07/06 11:58:24;;;;;;;16.35;9.40;;;;;;;;;;5030586;28;20045;-64
2022/07/06 12:01:05;;;;;;;15.27;10.10;;;;;;;;;;5030541;28;20035;-64
2022/07/06 12:03:32;;;;;;;14.88;10.40;;;;;;;;;;5031005;28;20049;-64
2022/07/06 12:05:58;;;;;;;15.10;10.30;;;;;;;;;;5030905;28;20478;-64
2022/07/06 12:08:24;;;;;;;14.38;10.15;;;;;;;;;;5030573;28;20053;-64
2022/07/06 12:10:52;;;;;;;14.80;10.23;;;;;;;;;;5053226;23;20095;-64
2022/07/06 12:13:18;;;;;;;16.00;10.60;;;;;;;;;;5032927;28;20050;-65
2022/07/06 12:15:44;;;;;;;14.93;10.50;;;;;;;;;;5014758;28;20481;-64
2022/07/06 12:18:10;;;;;;;18.23;11.13;;;;;;;;;;5014184;28;20121;-65
2022/07/06 12:20:36;;;;;;;16.05;10.05;;;;;;;;;;5032138;28;20030;-64
2022/07/06 12:23:06;;;;;;;16.10;10.25;;;;;;;;;;5030722;28;20030;-65
2022/07/06 12:25:32;;;;;;;15.05;9.98;;;;;;;;;;5031811;28;20033;-66
2022/07/06 12:27:58;;;;;;;15.90;10.02;;;;;;;;;;5031861;28;20393;-64
2022/07/06 12:30:24;;;;;;;14.55;10.25;;;;;;;;;;5031918;28;20028;-63
2022/07/06 12:33:09;;;;;;;15.68;9.85;;;;;;;;;;5031691;28;20037;-64
2022/07/06 12:35:36;;;;;;;15.57;10.20;;;;;;;;;;5031973;28;20022;-66
2022/07/06 12:38:02;;;;;;;15.30;10.20;;;;;;;;;;5031331;28;20139;-65
2022/07/06 12:40:28;;;;;;;15.20;10.55;;;;;;;;;;5032062;28;20034;-65
2022/07/06 12:42:54;;;;;;;14.85;10.20;;;;;;;;;;5034043;28;20044;-64
2022/07/06 12:45:20;;;;;;;15.18;10.05;;;;;;;;;;5031625;28;20112;-64
2022/07/06 12:48:01;;;;;;;14.88;10.10;;;;;;;;;;5031992;28;20036;-65
2022/07/06 12:50:37;;;;;;;15.05;9.93;;;;;;;;;;5031515;28;20048;-62
2022/07/06 12:53:04;;;;;;;15.32;9.50;;;;;;;;;;5031284;28;20109;-65
2022/07/06 12:55:30;;;;;;;16.80;10.60;;;;;;;;;;5031726;28;20025;-65
2022/07/06 12:57:56;;;;;;;15.85;10.00;;;;;;;;;;5033725;28;20497;-65
2022/07/06 13:00:23;;;;;;;15.63;9.95;;;;;;;;;;5035181;28;20543;-66
2022/07/06 13:02:56;;;;;;;17.95;10.30;;;;;;;;;;5017281;28;20439;-64
2022/07/06 13:05:27;;;;;;;18.50;10.70;;;;;;;;;;5033865;28;20034;-64
2022/07/06 13:07:54;;;;;;;14.90;10.05;;;;;;;;;;5034821;28;20066;-64
2022/07/06 13:10:20;;;;;;;14.85;9.70;;;;;;;;;;5034781;28;20041;-65
2022/07/06 13:12:46;;;;;;;14.95;9.30;;;;;;;;;;5035179;28;20017;-65
2022/07/06 13:15:12;;;;;;;14.73;9.73;;;;;;;;;;5034837;28;20021;-66
2022/07/06 13:17:39;;;;;;;14.88;9.60;;;;;;;;;;5016857;28;20030;-63
2022/07/06 13:20:06;;;;;;;15.60;9.27;;;;;;;;;;5034460;28;20508;-63
2022/07/06 13:22:32;;;;;;;17.13;9.90;;;;;;;;;;5034515;28;20452;-65
2022/07/06 13:24:58;;;;;;;17.23;9.85;;;;;;;;;;5035105;28;20117;-65
2022/07/06 13:27:24;;;;;;;16.73;9.80;;;;;;;;;;5034598;28;20036;-65
2022/07/06 13:29:50;;;;;;;15.18;9.63;;;;;;;;;;5034741;28;20044;-67
2022/07/06 13:32:15;;;;;;;16.25;10.23;;;;;;;;;;5034569;28;20021;-64
2022/07/06 13:34:41;;;;;;;14.80;9.80;;;;;;;;;;5034768;28;20032;-64
2022/07/06 13:37:08;;;;;;;15.57;10.45;;;;;;;;;;5034563;28;20071;-64
2022/07/06 13:39:34;;;;;;;15.43;9.93;;;;;;;;;;5034161;28;20112;-65
2022/07/06 13:42:00;;;;;;;17.60;10.27;;;;;;;;;;5033762;28;20478;-66
2022/07/06 13:44:26;;;;;;;14.95;10.20;;;;;;;;;;5033995;28;20474;-64
2022/07/06 13:46:52;;;;;;;15.18;10.10;;;;;;;;;;5033863;28;20084;-65
2022/07/06 13:49:18;;;;;;;14.20;9.80;;;;;;;;;;5033695;28;20056;-64
2022/07/06 13:51:44;;;;;;;16.15;9.93;;;;;;;;;;5033241;28;20064;-64
2022/07/06 13:54:10;;;;;;;15.43;9.98;;;;;;;;;;5015876;28;20021;-63
2022/07/06 13:56:39;;;;;;;15.05;10.02;;;;;;;;;;5033607;28;20029;-65
2022/07/06 13:59:05;;;;;;;16.70;9.90;;;;;;;;;;5033702;28;20032;-64
2022/07/06 14:01:31;;;;;;;14.60;9.93;;;;;;;;;;5034005;28;20029;-64
2022/07/06 14:03:57;;;;;;;16.33;10.43;;;;;;;;;;5033778;28;20037;-64
2022/07/06 14:06:23;;;;;;;14.90;10.15;;;;;;;;;;5033914;28;20025;-64
2022/07/06 14:08:49;;;;;;;15.45;10.50;;;;;;;;;;5031878;28;20076;-64
2022/07/06 14:11:16;;;;;;;14.70;10.00;;;;;;;;;;5033692;28;20033;-65
2022/07/06 14:13:42;;;;;;;16.67;9.88;;;;;;;;;;5015866;28;20083;-64
2022/07/06 14:16:08;;;;;;;15.70;10.10;;;;;;;;;;5033538;28;20025;-65
2022/07/06 14:18:34;;;;;;;17.15;10.25;;;;;;;;;;5033218;28;20083;-64
2022/07/06 14:21:00;;;;;;;14.40;9.88;;;;;;;;;;5033482;28;20033;-65
2022/07/06 14:23:29;;;;;;;15.05;9.52;;;;;;;;;;4679995;28;9999872;-65
2022/07/06 14:25:55;;;;;;;15.63;10.30;;;;;;;;;;5030686;28;20068;-65
2022/07/06 14:28:21;;;;;;;14.30;9.57;;;;;;;;;;5030540;28;20021;-64